createdAt,value
2022-08-21T00:01:46.192Z,25.92
2022-08-21T00:06:46.102Z,25.65
2022-08-21T00:11:45.594Z,26.69
2022-08-21T00:16:45.936Z,26.32
2022-08-21T00:21:54.430Z,26.10
2022-08-21T00:32:30.150Z,25.45
2022-08-21T00:37:52.906Z,25.69
2022-08-21T00:43:03.244Z,26.29
2022-08-21T00:48:10.696Z,25.97
2022-08-21T00:53:16.907Z,25.18
2022-08-21T00:58:27.077Z,25.19
2022-08-21T01:03:33.772Z,25.04
2022-08-21T01:08:30.426Z,25.00
2022-08-21T01:13:31.511Z,25.76
2022-08-21T01:18:29.366Z,24.70
2022-08-21T01:23:36.201Z,24.58
2022-08-21T01:28:38.266Z,24.67
2022-08-21T01:33:32.126Z,25.48
2022-08-21T01:38:29.025Z,24.21
2022-08-21T01:43:34.034Z,25.02
2022-08-21T01:48:33.120Z,24.51
2022-08-21T01:53:33.463Z,24.87
2022-08-21T01:58:29.978Z,24.41
2022-08-21T02:03:26.421Z,25.41
2022-08-21T02:08:32.201Z,24.27
2022-08-21T02:13:35.758Z,25.27
2022-08-21T02:18:30.729Z,24.66
2022-08-21T02:23:26.983Z,24.06
2022-08-21T02:28:23.035Z,25.11
2022-08-21T02:33:17.318Z,25.06
2022-08-21T02:38:15.512Z,24.49
2022-08-21T02:43:11.625Z,24.38
2022-08-21T02:48:11.013Z,24.50
2022-08-21T02:53:07.671Z,25.04
2022-08-21T02:58:04.584Z,24.80
2022-08-21T03:03:00.871Z,24.35
2022-08-21T03:07:56.300Z,24.97
2022-08-21T03:12:55.902Z,24.73
2022-08-21T03:17:49.149Z,25.17
2022-08-21T03:22:42.788Z,24.11
2022-08-21T03:27:43.432Z,24.57
2022-08-21T03:32:40.349Z,25.06
2022-08-21T03:37:34.538Z,24.42
2022-08-21T03:42:28.016Z,24.38
2022-08-21T03:47:23.165Z,24.25
2022-08-21T03:52:17.233Z,24.42
2022-08-21T03:57:11.674Z,24.84
2022-08-21T04:02:10.910Z,24.55
2022-08-21T04:07:10.109Z,24.00
2022-08-21T04:12:04.581Z,23.76
2022-08-21T04:17:01.949Z,24.50
2022-08-21T04:22:04.911Z,24.46
2022-08-21T04:26:59.966Z,24.73
2022-08-21T04:32:03.676Z,23.97
2022-08-21T04:36:57.760Z,23.96
2022-08-21T04:41:51.614Z,23.96
2022-08-21T04:46:46.799Z,23.95
2022-08-21T04:51:55.777Z,24.97
2022-08-21T04:57:01.088Z,25.23
2022-08-21T05:02:28.585Z,24.58
2022-08-21T05:07:42.323Z,24.35
2022-08-21T05:12:55.097Z,24.68
2022-08-21T05:18:01.248Z,25.44
2022-08-21T05:23:16.469Z,24.47
2022-08-21T05:28:31.687Z,25.01
2022-08-21T05:33:39.539Z,24.76
2022-08-21T05:38:40.062Z,25.02
2022-08-21T05:43:38.456Z,24.96
2022-08-21T05:49:06.369Z,24.88
2022-08-21T05:54:09.489Z,26.02
2022-08-21T06:26:41.351Z,27.07
2022-08-21T06:32:08.837Z,26.04
2022-08-21T06:37:36.740Z,26.72
2022-08-21T08:11:20.206Z,30.10
2022-08-21T08:21:46.911Z,31.30
2022-08-21T08:41:46.053Z,31.13
2022-08-21T08:53:37.378Z,30.96
2022-08-21T09:06:37.015Z,31.84
2022-08-21T09:11:41.662Z,31.43
2022-08-21T09:37:26.611Z,33.15
2022-08-21T09:49:25.185Z,34.49
2022-08-21T09:54:37.304Z,34.47
2022-08-21T10:00:05.987Z,33.41
2022-08-21T10:05:10.896Z,34.43
2022-08-21T10:10:49.184Z,33.34
2022-08-21T10:16:13.939Z,34.26
2022-08-21T10:21:55.206Z,33.43
2022-08-21T10:27:29.588Z,33.87
2022-08-21T10:32:56.404Z,34.51
2022-08-21T10:38:08.480Z,34.53
2022-08-21T10:43:47.215Z,34.85
2022-08-21T10:54:41.808Z,35.52
2022-08-21T11:11:35.929Z,37.18
2022-08-21T11:16:48.136Z,39.00
2022-08-21T11:22:11.315Z,38.62
2022-08-21T11:35:25.510Z,39.08
2022-08-21T11:54:36.419Z,40.53
2022-08-21T12:00:14.856Z,40.60
2022-08-21T12:05:56.417Z,41.30
2022-08-21T12:11:53.298Z,41.25
2022-08-21T12:17:29.436Z,41.61
2022-08-21T12:28:42.082Z,40.72
2022-08-21T12:34:30.248Z,39.80
2022-08-21T12:45:57.484Z,35.91
2022-08-21T12:51:57.297Z,33.72
2022-08-21T12:57:12.807Z,32.92
2022-08-21T13:02:31.835Z,32.29
2022-08-21T13:07:51.524Z,31.77
2022-08-21T13:13:25.061Z,32.28
2022-08-21T13:19:12.230Z,31.49
2022-08-21T13:24:41.778Z,29.76
2022-08-21T13:30:23.767Z,29.36
2022-08-21T13:35:28.714Z,28.95
2022-08-21T13:40:28.287Z,28.66
2022-08-21T13:45:39.642Z,28.96
2022-08-21T13:50:45.505Z,28.73
2022-08-21T13:55:52.313Z,29.26
2022-08-21T14:00:49.532Z,28.66
2022-08-21T14:05:48.899Z,27.44
2022-08-21T14:10:55.958Z,26.72
2022-08-21T14:16:00.170Z,27.94
2022-08-21T14:21:07.009Z,27.33
2022-08-21T14:26:05.724Z,27.34
2022-08-21T14:31:01.625Z,26.06
2022-08-21T14:36:31.115Z,25.75
2022-08-21T14:41:29.189Z,26.06
2022-08-21T14:46:25.581Z,26.76
2022-08-21T14:51:21.590Z,26.36
2022-08-21T14:56:27.334Z,26.15
2022-08-21T15:01:23.823Z,26.48
2022-08-21T15:06:21.833Z,26.62
2022-08-21T15:11:41.117Z,26.10
2022-08-21T15:16:35.847Z,27.25
2022-08-21T15:21:37.564Z,27.15
2022-08-21T15:26:37.790Z,27.33
2022-08-21T15:32:16.708Z,27.34
2022-08-21T15:37:58.084Z,26.38
2022-08-21T15:43:08.392Z,26.51
2022-08-21T15:48:46.719Z,26.35
2022-08-21T15:53:57.703Z,26.91
2022-08-21T16:04:36.186Z,26.52
2022-08-21T16:09:30.379Z,26.91
2022-08-21T16:14:27.989Z,26.37
2022-08-21T16:19:36.437Z,26.92
2022-08-21T16:24:30.560Z,27.21
2022-08-21T16:29:36.656Z,26.73
2022-08-21T16:34:39.519Z,26.34
2022-08-21T16:39:39.473Z,27.02
2022-08-21T16:44:43.273Z,26.92
2022-08-21T16:49:46.363Z,26.80
2022-08-21T16:54:54.074Z,27.29
2022-08-21T16:59:56.426Z,26.59
2022-08-21T17:04:50.460Z,26.60
2022-08-21T17:09:47.930Z,26.58
2022-08-21T17:14:41.756Z,26.25
2022-08-21T17:19:49.244Z,26.67
2022-08-21T17:25:02.872Z,26.13
2022-08-21T17:30:00.558Z,25.77
2022-08-21T17:41:54.442Z,27.27
2022-08-21T17:53:27.412Z,26.49
2022-08-21T17:58:37.777Z,25.80
2022-08-21T18:03:47.571Z,25.58
2022-08-21T18:08:42.713Z,25.03
2022-08-21T18:13:45.358Z,24.97
2022-08-21T18:18:45.626Z,24.82
2022-08-21T18:23:44.918Z,23.46
2022-08-21T18:28:47.057Z,23.79
2022-08-21T18:33:58.254Z,23.27
2022-08-21T18:39:47.083Z,24.35
2022-08-21T18:45:03.217Z,23.93
2022-08-21T18:50:02.369Z,22.85
2022-08-21T18:55:13.365Z,23.94
2022-08-21T19:00:25.182Z,23.69
2022-08-21T19:10:38.306Z,23.26
2022-08-21T19:15:46.835Z,23.06
2022-08-21T19:20:47.341Z,23.26
2022-08-21T19:25:46.768Z,22.83
2022-08-21T19:31:13.117Z,22.92
2022-08-21T19:36:16.171Z,23.62
2022-08-21T19:41:34.219Z,23.21
2022-08-21T19:46:34.976Z,23.64
2022-08-21T19:51:29.988Z,23.13
2022-08-21T19:56:29.168Z,23.50
2022-08-21T20:06:40.096Z,23.03
2022-08-21T20:11:58.202Z,22.36
2022-08-21T20:17:14.676Z,23.84
2022-08-21T20:22:36.968Z,22.60
2022-08-21T20:33:11.536Z,23.64
2022-08-21T20:39:09.175Z,23.64
2022-08-21T20:44:18.264Z,22.27
2022-08-21T20:49:16.119Z,23.42
2022-08-21T20:54:26.708Z,23.02
2022-08-21T20:59:52.852Z,23.20
2022-08-21T21:04:58.432Z,22.43
2022-08-21T21:10:13.310Z,22.93
2022-08-21T21:15:27.728Z,22.95
2022-08-21T21:20:34.759Z,22.39
2022-08-21T21:25:40.618Z,23.48
2022-08-21T21:31:00.840Z,23.09
2022-08-21T21:36:16.576Z,22.33
2022-08-21T21:41:18.779Z,23.36
2022-08-21T21:46:32.949Z,22.84
2022-08-21T21:51:38.912Z,22.77
2022-08-21T21:56:48.779Z,22.58
2022-08-21T22:01:56.149Z,22.70
2022-08-21T22:07:00.925Z,23.02
2022-08-21T22:12:18.644Z,22.66
2022-08-21T22:17:36.129Z,23.59
2022-08-21T22:22:32.678Z,22.53
2022-08-21T22:27:38.407Z,22.24
2022-08-21T22:32:40.373Z,22.84
2022-08-21T22:37:43.632Z,23.59
2022-08-21T22:42:38.143Z,23.31
2022-08-21T22:47:38.534Z,23.51
2022-08-21T22:52:42.099Z,23.10
2022-08-21T22:57:38.300Z,22.54
2022-08-21T23:02:47.913Z,23.14
2022-08-21T23:07:51.663Z,23.55
2022-08-21T23:13:02.520Z,22.78
2022-08-21T23:31:46.739Z,23.22
2022-08-21T23:37:48.379Z,22.64
2022-08-21T23:56:08.412Z,23.58
